Fairfax, Ohio
Current Conditions -  °F | °C
As of 9:07 AM on Monday 26 Jan 2015 (Local Time) from KLUK Reporting Station
Overcast Overcast  
Wind Chill:   Ceiling: 3300
Heat Index: 21°   Visibility: 10mi
Dew Point: 16°   Wind: 12mph
Humidity: 81%   Direction: 330°NNW
Pressure: 29.91"   Gusts: NA
Location:  39.1518°N, 84.3852°W
Report Text: KLUK 261407Z 33010KT 10SM FEW018 BKN033 OVC040 M06/M09 A2991 RMK AO2 T10611089
Loading
Personal Weather Stations






























Interactive Weather Map New forecast layout! Learn more

10-Day Weather Forecast

Advertisements
Track Severe Weather on mobile